createdAt,value
2022-12-24T00:03:16.801Z,84.64
2022-12-24T00:08:28.906Z,84.57
2022-12-24T00:14:10.740Z,84.49
2022-12-24T00:19:18.430Z,84.46
2022-12-24T00:24:25.847Z,84.72
2022-12-24T00:29:33.058Z,84.77
2022-12-24T00:34:40.739Z,84.80
2022-12-24T00:39:52.567Z,84.75
2022-12-24T00:44:59.774Z,84.80
2022-12-24T00:50:08.049Z,84.71
2022-12-24T00:55:15.189Z,84.95
2022-12-24T01:00:23.361Z,84.81
2022-12-24T01:05:30.484Z,84.51
2022-12-24T01:10:37.696Z,84.49
2022-12-24T01:16:17.952Z,84.65
2022-12-24T01:21:25.335Z,84.87
2022-12-24T01:26:32.736Z,84.78
2022-12-24T01:31:39.959Z,84.60
2022-12-24T01:36:47.167Z,84.73
2022-12-24T01:42:12.039Z,84.85
2022-12-24T01:47:22.648Z,84.65
2022-12-24T01:52:32.418Z,84.71
2022-12-24T01:57:43.299Z,84.78
2022-12-24T02:02:53.321Z,84.83
2022-12-24T02:08:03.151Z,84.73
2022-12-24T02:13:10.656Z,84.64
2022-12-24T02:18:24.280Z,84.58
2022-12-24T02:24:03.907Z,84.56
2022-12-24T02:30:01.343Z,84.66
2022-12-24T02:35:13.784Z,84.85
2022-12-24T02:40:25.408Z,84.72
2022-12-24T02:45:34.914Z,84.63
2022-12-24T02:50:42.127Z,84.60
2022-12-24T02:56:01.149Z,84.63
2022-12-24T03:01:18.256Z,84.71
2022-12-24T03:06:33.323Z,84.66
2022-12-24T03:11:46.247Z,84.73
2022-12-24T03:16:53.474Z,84.79
2022-12-24T03:22:04.612Z,84.63
2022-12-24T03:27:16.482Z,84.72
2022-12-24T03:32:33.799Z,84.68
2022-12-24T03:37:41.124Z,84.68
2022-12-24T03:42:48.346Z,84.58
2022-12-24T03:47:55.497Z,84.52
2022-12-24T03:53:02.583Z,84.56
2022-12-24T03:58:10.073Z,84.61
2022-12-24T04:03:17.265Z,84.65
2022-12-24T04:08:24.447Z,84.69
2022-12-24T04:13:33.912Z,84.56
2022-12-24T04:18:42.367Z,84.62
2022-12-24T04:23:49.883Z,84.66
2022-12-24T04:28:57.107Z,84.83
2022-12-24T04:34:04.405Z,84.72
2022-12-24T04:39:11.648Z,84.58
2022-12-24T04:44:18.960Z,84.63
2022-12-24T04:49:26.198Z,84.57
2022-12-24T04:54:33.499Z,84.62
2022-12-24T04:59:40.703Z,84.79
2022-12-24T05:04:49.418Z,84.61
2022-12-24T05:09:56.693Z,84.43
2022-12-24T05:15:04.439Z,84.46
2022-12-24T05:20:13.261Z,84.57
2022-12-24T05:25:38.257Z,84.56
2022-12-24T05:30:45.488Z,84.54
2022-12-24T05:35:54.234Z,84.56
2022-12-24T05:41:01.570Z,84.53
2022-12-24T05:46:11.762Z,84.59
2022-12-24T05:51:22.414Z,84.59
2022-12-24T05:56:30.052Z,84.58
2022-12-24T06:01:37.482Z,84.62
2022-12-24T06:06:44.872Z,84.60
2022-12-24T06:11:52.201Z,84.66
2022-12-24T06:16:59.449Z,84.78
2022-12-24T06:22:06.592Z,84.63
2022-12-24T06:27:15.316Z,84.53
2022-12-24T06:32:23.105Z,84.64
2022-12-24T06:37:30.985Z,84.52
2022-12-24T06:42:38.453Z,84.41
2022-12-24T06:47:46.069Z,84.53
2022-12-24T06:52:53.322Z,84.69
2022-12-24T06:58:00.576Z,84.58
2022-12-24T07:03:08.114Z,84.47
2022-12-24T07:08:15.950Z,84.57
2022-12-24T07:13:24.613Z,84.67
2022-12-24T07:18:32.444Z,84.81
2022-12-24T07:23:39.731Z,84.73
2022-12-24T07:28:46.995Z,84.73
2022-12-24T07:33:54.348Z,84.69
2022-12-24T07:39:01.664Z,84.70
2022-12-24T07:44:10.184Z,84.69
2022-12-24T07:49:19.702Z,84.80
2022-12-24T07:54:27.273Z,84.68
2022-12-24T07:59:34.569Z,84.72
2022-12-24T08:04:42.068Z,84.61
2022-12-24T08:09:49.382Z,84.67
2022-12-24T08:14:56.607Z,84.78
2022-12-24T08:20:03.941Z,84.72
2022-12-24T08:25:14.615Z,84.76
2022-12-24T08:30:23.305Z,84.78
2022-12-24T08:35:34.890Z,84.66
2022-12-24T08:40:54.072Z,84.71
2022-12-24T08:46:05.736Z,84.74
2022-12-24T08:51:14.213Z,84.67
2022-12-24T08:56:21.401Z,84.80
2022-12-24T09:01:28.715Z,84.77
2022-12-24T09:06:36.626Z,84.78
2022-12-24T09:11:43.887Z,84.71
2022-12-24T09:16:51.236Z,84.88
2022-12-24T09:21:58.602Z,84.78
2022-12-24T09:27:05.881Z,84.53
2022-12-24T09:32:13.675Z,84.47
2022-12-24T09:37:21.214Z,84.35
2022-12-24T09:42:42.446Z,84.24
2022-12-24T09:47:53.044Z,84.35
2022-12-24T09:53:03.341Z,84.51
2022-12-24T09:58:20.506Z,84.71
2022-12-24T10:03:27.997Z,84.55
2022-12-24T10:08:45.211Z,84.52
2022-12-24T10:14:04.808Z,84.53
2022-12-24T10:19:17.536Z,84.67
2022-12-24T10:24:30.948Z,84.46
2022-12-24T10:29:42.005Z,84.32
2022-12-24T10:34:55.052Z,84.35
2022-12-24T10:40:03.998Z,84.42
2022-12-24T10:45:18.340Z,84.43
2022-12-24T10:50:43.578Z,84.31
2022-12-24T10:56:05.331Z,84.38
2022-12-24T11:01:13.226Z,84.49
2022-12-24T11:06:22.943Z,84.36
2022-12-24T11:11:37.856Z,84.48
2022-12-24T11:16:53.620Z,84.30
2022-12-24T11:22:06.705Z,84.33
2022-12-24T11:27:33.952Z,84.36
2022-12-24T11:32:41.223Z,84.33
2022-12-24T11:37:48.866Z,84.44
2022-12-24T11:43:02.657Z,84.23
2022-12-24T11:48:30.898Z,84.40
2022-12-24T11:53:43.491Z,84.43
2022-12-24T11:58:56.323Z,84.55
2022-12-24T12:04:06.459Z,84.56
2022-12-24T12:09:20.416Z,84.41
2022-12-24T12:14:31.603Z,84.54
2022-12-24T12:19:44.770Z,84.36
2022-12-24T12:24:58.151Z,84.31
2022-12-24T12:30:15.499Z,84.28
2022-12-24T12:35:27.537Z,84.18
2022-12-24T12:40:54.635Z,84.22
2022-12-24T12:46:10.901Z,84.22
2022-12-24T12:51:27.123Z,84.21
2022-12-24T12:56:36.915Z,84.19
2022-12-24T13:01:48.529Z,84.10
2022-12-24T13:07:37.856Z,84.05
2022-12-24T13:13:13.038Z,84.12
2022-12-24T13:18:40.627Z,84.04
2022-12-24T13:23:48.943Z,83.90
2022-12-24T13:28:56.057Z,84.07
2022-12-24T13:34:05.354Z,84.04
2022-12-24T13:39:21.625Z,84.04
2022-12-24T13:44:34.810Z,83.97
2022-12-24T13:49:44.894Z,83.98
2022-12-24T13:55:05.558Z,83.98
2022-12-24T14:00:29.616Z,83.90
2022-12-24T14:05:40.494Z,84.09
2022-12-24T14:11:04.100Z,84.06
2022-12-24T14:16:16.297Z,84.01
2022-12-24T14:21:29.503Z,84.07
2022-12-24T14:26:47.170Z,84.17
2022-12-24T14:32:09.809Z,83.88
2022-12-24T14:37:19.001Z,83.96
2022-12-24T14:42:37.413Z,83.84
2022-12-24T14:47:52.150Z,83.90
2022-12-24T14:53:14.980Z,83.98
2022-12-24T14:58:29.228Z,84.11
2022-12-24T15:03:36.727Z,84.04
2022-12-24T15:08:50.370Z,84.01
2022-12-24T15:14:00.798Z,83.98
2022-12-24T15:19:15.518Z,84.11
2022-12-24T15:24:32.829Z,84.04
2022-12-24T15:29:46.514Z,84.10
2022-12-24T15:34:57.276Z,84.16
2022-12-24T15:40:10.563Z,84.06
2022-12-24T15:45:27.035Z,84.14
2022-12-24T15:50:37.617Z,84.17
2022-12-24T15:55:47.761Z,84.09
2022-12-24T16:01:06.357Z,83.94
2022-12-24T16:06:14.286Z,84.16
2022-12-24T16:11:24.159Z,84.24
2022-12-24T16:16:38.286Z,84.15
2022-12-24T16:21:45.810Z,84.13
2022-12-24T16:26:53.411Z,84.27
2022-12-24T16:32:01.391Z,84.28
2022-12-24T16:37:08.968Z,83.96
2022-12-24T16:42:34.060Z,84.11
2022-12-24T16:47:43.268Z,84.11
2022-12-24T16:52:50.944Z,84.01
2022-12-24T16:57:58.207Z,84.14
2022-12-24T17:03:05.690Z,84.08
2022-12-24T17:08:13.811Z,84.06
2022-12-24T17:13:21.032Z,84.08
2022-12-24T17:18:28.310Z,84.29
2022-12-24T17:23:35.794Z,84.24
2022-12-24T17:28:43.721Z,84.29
2022-12-24T17:33:51.884Z,84.43
2022-12-24T17:38:57.552Z,84.35
2022-12-24T17:44:05.185Z,84.34
2022-12-24T17:49:12.590Z,84.37
2022-12-24T17:54:21.342Z,84.46
2022-12-24T17:59:28.986Z,84.60
2022-12-24T18:05:39.187Z,84.43
2022-12-24T18:18:11.285Z,84.43
2022-12-24T18:23:18.605Z,84.51
2022-12-24T18:28:26.012Z,84.58
2022-12-24T18:33:33.833Z,84.50
2022-12-24T18:38:41.065Z,84.46
2022-12-24T18:43:49.551Z,84.54
2022-12-24T18:48:59.656Z,84.34
2022-12-24T18:54:07.169Z,84.46
2022-12-24T18:59:14.416Z,84.67
2022-12-24T19:04:21.650Z,84.69
2022-12-24T19:09:28.836Z,84.58
2022-12-24T19:14:36.410Z,84.52
2022-12-24T19:19:43.785Z,84.41
2022-12-24T19:24:52.648Z,84.43
2022-12-24T19:29:59.967Z,84.35
2022-12-24T19:35:07.801Z,84.31
2022-12-24T19:40:15.713Z,84.46
2022-12-24T19:45:23.470Z,84.48
2022-12-24T19:50:53.670Z,84.34
2022-12-24T19:56:09.980Z,84.30
2022-12-24T20:01:20.025Z,84.21
2022-12-24T20:06:34.719Z,84.36
2022-12-24T20:11:42.807Z,84.36
2022-12-24T20:16:51.265Z,84.37
2022-12-24T20:21:58.777Z,84.33
2022-12-24T20:27:06.688Z,84.28
2022-12-24T20:32:14.350Z,84.31
2022-12-24T20:37:22.058Z,84.57
2022-12-24T20:42:29.764Z,84.62
2022-12-24T20:47:39.574Z,84.56
2022-12-24T20:52:47.216Z,84.42
2022-12-24T20:57:55.107Z,84.43
2022-12-24T21:03:10.553Z,84.49
2022-12-24T21:08:18.393Z,84.61
2022-12-24T21:13:25.899Z,84.60
2022-12-24T21:18:33.197Z,84.71
2022-12-24T21:23:40.630Z,84.57
2022-12-24T21:28:49.408Z,84.43
2022-12-24T21:33:58.956Z,84.48
2022-12-24T21:39:06.466Z,84.63
2022-12-24T21:44:13.979Z,84.57
2022-12-24T21:49:38.983Z,84.72
2022-12-24T21:54:46.457Z,84.80
2022-12-24T21:59:55.016Z,84.71
2022-12-24T22:05:02.478Z,84.74
2022-12-24T22:10:29.503Z,84.64
2022-12-24T22:15:38.042Z,84.78
2022-12-24T22:20:46.500Z,84.92
2022-12-24T22:25:54.178Z,84.88
2022-12-24T22:31:01.881Z,84.92
2022-12-24T22:36:10.989Z,84.88
2022-12-24T22:41:18.887Z,84.82
2022-12-24T22:46:26.370Z,84.87
2022-12-24T22:51:34.108Z,85.04
2022-12-24T22:56:41.911Z,84.91
2022-12-24T23:01:52.899Z,84.94
2022-12-24T23:07:00.256Z,84.87
2022-12-24T23:12:08.491Z,84.88
2022-12-24T23:17:16.320Z,84.76
2022-12-24T23:22:23.562Z,84.82
2022-12-24T23:27:30.970Z,84.95
2022-12-24T23:32:38.172Z,85.03
2022-12-24T23:37:46.172Z,85.08
2022-12-24T23:42:53.346Z,84.99
2022-12-24T23:48:00.567Z,85.08
2022-12-24T23:53:07.966Z,85.05
2022-12-24T23:58:16.912Z,85.06
